Aérodrome :
LOGIN :

S'inscrire | Disclaimer

   EN    FR    IT 

 










Légende :    VFR   VFR Marginal   IFR   IFR Intensif   IFR Très Intensif
Visi : 
Plafond : 
>= 8 km
>= 3000ft
5 à 8 km
1000 à 3000 ft
1500m à 5 km
500 à 1000 ft
800 à 1500m
200 à 500 ft
< 800m
< 200 ft
Symboles :   Orages  Brouillard  Fortes neiges  Fortes précipitations  Vent > 20 kt
SIGMETs :   Divers  Orages  Givrage  Turbulence  Onde Orograph.  Cendres Volcan.







- Altitude de l'aérodrome : 13 ft
- Code IATA : SNR
- Voir les cartes d'approche


LFRZ - St-Nazaire

DERNIER METAR :
  • 200830Z AUTO 32003KT 290V350 9999 OVC046 05/04 Q1012 TEMPO 2000 BR BKN002

METARs EXPIRÉS :
  • 200800Z AUTO 29005KT 260V320 9999 OVC046 05/04 Q1012 TEMPO 2000 BR BKN002
  • 200730Z AUTO 32004KT 290V010 9999 OVC042 05/04 Q1012 TEMPO 2000 BR BKN002
  • 200700Z AUTO 32003KT 260V360 9000 OVC039 05/04 Q1011 TEMPO 2000 BR BKN002
  • 200630Z AUTO 31004KT 280V350 9000 OVC039 05/04 Q1011 TEMPO 2000 BR BKN002
  • 200600Z AUTO 30005KT 9999 OVC041 05/04 Q1011 TEMPO 2000 BR BKN002

TAF TAF LFRZ
Valide du 20 à 06h jusqu'au 21 à 06h UTC


200500Z 2006/2106 VRB03KT 9999 SCT020 SCT050
TEMPO 2006/2010 2000 BR BKN002
BECMG 2011/2013 01008KT
PROB30
TEMPO 2012/2017 SHRA SCT020TCU
TEMPO 2100/2106 0600 FG BKN001
Pas de NOTAMs connus pour ce terrain.



MET'MAP, la Météo Aéronautique d'un coup d'oeil ! - Copyright ORBIFLY Décembre 2007 - Disclaimer

ORBIFLY MET'MAP TEAM :

Programmation & Développement : Alexandra Zaïnal
Conception & Développement : Baudouin d'Aumeries
Co-Programmation & Développement : Marc-Olivier Méhu
Soutien technique & logistique : Manuel Goepfert

Contact : metmap@orbifly.com




SOURCES & CREDITS :

   NOAA